Time;durP1;ratioP1;P1;durP2;ratioP2;P2;SDS_P1;SDS_P2;PMS_P1;PMS_P2;Temp;Humidity;BMP_temperature;BMP_pressure;BME280_temperature;BME280_humidity;BME280_pressure;Samples;Min_cycle;Max_cycle;Signal;HPM_P1;HPM_P2
2022/08/10 00:01:51;;;;;;;3.92;2.37;;;;;;;;;;2304753;54;21046;-76
2022/08/10 00:04:18;;;;;;;5.10;2.58;;;;;;;;;;2300254;58;21059;-76
2022/08/10 00:06:45;;;;;;;4.47;2.50;;;;;;;;;;2297608;58;21553;-76
2022/08/10 00:09:12;;;;;;;3.80;2.28;;;;;;;;;;2300035;58;21455;-77
2022/08/10 00:11:39;;;;;;;3.30;2.62;;;;;;;;;;2364940;54;21075;-77
2022/08/10 00:14:06;;;;;;;3.45;2.60;;;;;;;;;;2299759;58;21065;-77
2022/08/10 00:16:33;;;;;;;4.18;2.45;;;;;;;;;;2296741;58;21063;-77
2022/08/10 00:19:00;;;;;;;6.20;2.75;;;;;;;;;;2299350;58;21214;-76
2022/08/10 00:21:27;;;;;;;3.65;2.85;;;;;;;;;;2306238;54;21106;-77
2022/08/10 00:23:54;;;;;;;2.85;1.90;;;;;;;;;;2299609;58;21071;-76
2022/08/10 00:26:21;;;;;;;2.30;1.90;;;;;;;;;;2298423;58;21059;-77
2022/08/10 00:28:48;;;;;;;4.85;2.90;;;;;;;;;;2304921;54;21365;-76
2022/08/10 00:31:16;;;;;;;2.28;2.05;;;;;;;;;;2300240;58;21580;-76
2022/08/10 00:33:43;;;;;;;3.35;2.12;;;;;;;;;;2299373;58;21114;-76
2022/08/10 00:36:10;;;;;;;3.62;2.40;;;;;;;;;;2392126;54;21094;-77
2022/08/10 00:38:37;;;;;;;3.97;2.20;;;;;;;;;;2299174;58;21046;-77
2022/08/10 00:41:04;;;;;;;2.80;2.42;;;;;;;;;;2299637;58;21043;-76
2022/08/10 00:43:32;;;;;;;5.05;2.45;;;;;;;;;;2300268;58;21150;-76
2022/08/10 00:45:59;;;;;;;2.50;2.30;;;;;;;;;;2334906;54;21078;-76
2022/08/10 00:48:26;;;;;;;3.03;2.30;;;;;;;;;;2299648;58;21419;-77
2022/08/10 00:50:53;;;;;;;3.35;2.55;;;;;;;;;;2299424;58;21066;-77
2022/08/10 00:53:20;;;;;;;3.22;2.15;;;;;;;;;;2298974;58;21071;-76
2022/08/10 00:55:47;;;;;;;2.60;2.20;;;;;;;;;;2305308;54;22232;-77
2022/08/10 00:58:15;;;;;;;3.37;2.15;;;;;;;;;;2298608;58;21129;-77
2022/08/10 01:00:42;;;;;;;2.53;2.08;;;;;;;;;;2306031;54;21133;-77
2022/08/10 01:03:09;;;;;;;5.10;2.37;;;;;;;;;;2299325;58;21569;-76
2022/08/10 01:05:42;;;;;;;3.10;2.53;;;;;;;;;;2303944;54;21074;-77
2022/08/10 01:08:26;;;;;;;2.80;2.25;;;;;;;;;;2299348;58;21157;-77
2022/08/10 01:10:59;;;;;;;2.47;2.12;;;;;;;;;;2300349;58;21556;-77
2022/08/10 01:13:27;;;;;;;3.20;2.45;;;;;;;;;;2299986;54;21046;-77
2022/08/10 01:15:57;;;;;;;4.37;2.40;;;;;;;;;;2297904;58;21130;-77
2022/08/10 01:18:30;;;;;;;2.87;2.58;;;;;;;;;;2299018;58;21054;-76
2022/08/10 01:20:56;;;;;;;;;;;;;;;;;;2303334;58;21051;-77
2022/08/10 01:23:34;;;;;;;2.90;2.08;;;;;;;;;;2298479;58;20080;-77
2022/08/10 01:26:21;;;;;;;2.20;1.90;;;;;;;;;;2299279;58;21649;-76
2022/08/10 01:28:54;;;;;;;2.62;1.98;;;;;;;;;;2376001;54;21039;-76
2022/08/10 01:31:23;;;;;;;2.10;1.90;;;;;;;;;;2408367;54;21121;-77
2022/08/10 01:33:53;;;;;;;2.12;1.80;;;;;;;;;;2299950;58;21494;-76
2022/08/10 01:36:25;;;;;;;1.80;1.65;;;;;;;;;;2298944;58;21450;-76
2022/08/10 01:38:52;;;;;;;2.45;2.05;;;;;;;;;;2298358;58;21178;-76
2022/08/10 01:41:22;;;;;;;3.85;2.30;;;;;;;;;;2299826;58;21372;-76
2022/08/10 01:43:51;;;;;;;2.65;1.85;;;;;;;;;;2300036;58;21066;-76
2022/08/10 01:46:21;;;;;;;2.30;2.00;;;;;;;;;;2299144;58;21070;-76
2022/08/10 01:48:49;;;;;;;3.62;2.20;;;;;;;;;;2299768;58;21067;-76
2022/08/10 01:51:18;;;;;;;3.75;1.98;;;;;;;;;;2310569;54;21067;-76
2022/08/10 01:53:50;;;;;;;4.53;2.35;;;;;;;;;;2300684;58;21062;-76
2022/08/10 01:56:19;;;;;;;6.28;1.95;;;;;;;;;;2298511;58;21584;-77
2022/08/10 01:58:48;;;;;;;3.80;2.03;;;;;;;;;;2299205;58;21142;-77
2022/08/10 02:01:17;;;;;;;3.03;2.58;;;;;;;;;;2368512;54;21066;-76
2022/08/10 02:03:46;;;;;;;2.42;2.05;;;;;;;;;;2299402;58;21050;-76
2022/08/10 02:06:14;;;;;;;3.87;1.75;;;;;;;;;;2299287;58;21058;-76
2022/08/10 02:08:42;;;;;;;3.80;1.90;;;;;;;;;;2299105;58;21113;-76
2022/08/10 02:11:11;;;;;;;2.60;2.33;;;;;;;;;;2299588;58;21320;-76
2022/08/10 02:13:38;;;;;;;2.70;1.80;;;;;;;;;;2299414;58;21138;-76
2022/08/10 02:16:06;;;;;;;3.35;2.12;;;;;;;;;;2299297;58;21118;-76
2022/08/10 02:18:34;;;;;;;1.90;1.65;;;;;;;;;;2412242;54;21042;-76
2022/08/10 02:21:03;;;;;;;3.20;2.20;;;;;;;;;;2300060;58;21672;-77
2022/08/10 02:23:32;;;;;;;2.25;1.83;;;;;;;;;;2299225;58;21062;-76
2022/08/10 02:26:01;;;;;;;2.05;1.85;;;;;;;;;;2299426;58;21043;-76
2022/08/10 02:28:30;;;;;;;2.53;1.92;;;;;;;;;;2299642;58;21166;-76
2022/08/10 02:30:58;;;;;;;2.58;2.15;;;;;;;;;;2312721;54;21046;-76
2022/08/10 02:33:26;;;;;;;3.83;2.25;;;;;;;;;;2298776;58;21067;-76
2022/08/10 02:35:54;;;;;;;2.55;1.80;;;;;;;;;;2301281;54;21157;-77
2022/08/10 02:38:23;;;;;;;2.75;2.20;;;;;;;;;;2300328;58;21063;-76
2022/08/10 02:40:52;;;;;;;2.78;1.98;;;;;;;;;;2299830;58;21074;-77
2022/08/10 02:43:21;;;;;;;3.62;2.00;;;;;;;;;;2299557;58;21581;-76
2022/08/10 02:45:50;;;;;;;2.55;2.00;;;;;;;;;;2334826;54;21415;-76
2022/08/10 02:48:20;;;;;;;2.37;1.90;;;;;;;;;;2305517;54;21075;-77
2022/08/10 02:50:50;;;;;;;4.07;2.25;;;;;;;;;;2299395;58;21119;-76
2022/08/10 02:53:22;;;;;;;2.75;2.47;;;;;;;;;;2316575;54;21062;-77
2022/08/10 02:55:51;;;;;;;2.03;1.85;;;;;;;;;;2299504;58;21545;-76
2022/08/10 02:58:22;;;;;;;3.00;1.98;;;;;;;;;;2300183;54;21193;-76
2022/08/10 03:00:51;;;;;;;3.58;2.42;;;;;;;;;;2298698;58;21122;-76
2022/08/10 03:03:20;;;;;;;2.92;2.42;;;;;;;;;;2298313;58;21284;-76
2022/08/10 03:05:49;;;;;;;3.10;2.50;;;;;;;;;;2299010;58;21058;-76
2022/08/10 03:08:18;;;;;;;3.30;2.50;;;;;;;;;;2414048;54;21038;-76
2022/08/10 03:10:46;;;;;;;2.92;2.30;;;;;;;;;;2418431;54;21046;-78
2022/08/10 03:13:13;;;;;;;3.87;2.42;;;;;;;;;;2298604;58;21066;-77
2022/08/10 03:15:41;;;;;;;3.17;2.17;;;;;;;;;;2298145;58;21066;-77
2022/08/10 03:18:08;;;;;;;3.03;2.62;;;;;;;;;;2348113;54;21142;-76
2022/08/10 03:20:37;;;;;;;3.55;2.35;;;;;;;;;;2299270;58;21055;-77
2022/08/10 03:23:04;;;;;;;2.20;1.98;;;;;;;;;;2487273;54;22285;-76
2022/08/10 03:25:32;;;;;;;2.78;2.10;;;;;;;;;;2298374;58;21348;-77
2022/08/10 03:27:59;;;;;;;2.00;1.80;;;;;;;;;;2299779;58;21149;-76
2022/08/10 03:30:26;;;;;;;2.80;2.40;;;;;;;;;;2297910;58;21114;-76
2022/08/10 03:35:30;;;;;;;2.25;2.05;;;;;;;;;;2354644;54;22598;-77
2022/08/10 03:37:57;;;;;;;4.43;2.95;;;;;;;;;;2349122;53;21057;-78
2022/08/10 03:40:26;;;;;;;2.65;2.37;;;;;;;;;;2345704;57;21141;-78
2022/08/10 03:42:54;;;;;;;2.62;2.33;;;;;;;;;;2345568;57;21101;-78
2022/08/10 03:45:21;;;;;;;2.62;2.10;;;;;;;;;;2345055;57;21081;-78
2022/08/10 03:47:49;;;;;;;3.80;2.20;;;;;;;;;;2388434;53;21528;-78
2022/08/10 03:50:17;;;;;;;3.22;2.53;;;;;;;;;;2345417;53;21034;-78
2022/08/10 03:52:44;;;;;;;2.72;2.47;;;;;;;;;;2343787;57;21049;-78
2022/08/10 03:55:12;;;;;;;2.90;2.20;;;;;;;;;;2343889;57;21352;-78
2022/08/10 03:57:39;;;;;;;6.45;3.10;;;;;;;;;;2345907;57;21057;-77
2022/08/10 04:00:08;;;;;;;3.40;2.30;;;;;;;;;;2346194;57;21161;-78
2022/08/10 04:02:36;;;;;;;2.30;2.10;;;;;;;;;;2401992;53;21118;-78
2022/08/10 04:05:03;;;;;;;3.40;2.08;;;;;;;;;;2346351;57;21090;-80
2022/08/10 04:07:31;;;;;;;2.95;2.20;;;;;;;;;;2358438;53;21077;-78
2022/08/10 04:09:58;;;;;;;3.05;2.35;;;;;;;;;;2379768;53;21038;-79
2022/08/10 04:12:25;;;;;;;3.50;2.12;;;;;;;;;;2374478;53;21050;-80
2022/08/10 04:14:52;;;;;;;7.10;2.50;;;;;;;;;;2344258;57;21053;-79
2022/08/10 04:17:19;;;;;;;4.75;2.22;;;;;;;;;;2345220;57;21053;-79
2022/08/10 04:19:48;;;;;;;2.58;2.12;;;;;;;;;;2346245;57;21120;-79
2022/08/10 04:22:16;;;;;;;4.32;2.45;;;;;;;;;;2346002;57;21065;-78
2022/08/10 04:24:44;;;;;;;5.35;2.55;;;;;;;;;;2345378;57;21049;-80
2022/08/10 04:27:11;;;;;;;3.42;2.30;;;;;;;;;;2345633;57;21062;-80
2022/08/10 04:29:39;;;;;;;3.75;2.40;;;;;;;;;;2345965;57;21061;-79
2022/08/10 04:32:09;;;;;;;2.97;2.17;;;;;;;;;;2345689;57;21089;-80
2022/08/10 04:34:37;;;;;;;3.62;2.55;;;;;;;;;;2343040;57;21066;-78
2022/08/10 04:37:06;;;;;;;5.68;2.97;;;;;;;;;;2343367;57;21125;-79
2022/08/10 04:39:33;;;;;;;4.43;2.45;;;;;;;;;;2347533;53;21053;-77
2022/08/10 04:42:01;;;;;;;2.50;2.10;;;;;;;;;;2344869;57;21054;-78
2022/08/10 04:44:28;;;;;;;2.85;2.37;;;;;;;;;;2344355;57;21121;-76
2022/08/10 04:46:55;;;;;;;2.95;2.30;;;;;;;;;;2341762;57;21914;-78
2022/08/10 04:49:22;;;;;;;2.80;2.28;;;;;;;;;;2343733;57;21564;-77
2022/08/10 04:51:49;;;;;;;2.72;2.20;;;;;;;;;;2348195;53;21021;-78
2022/08/10 04:54:16;;;;;;;2.97;2.22;;;;;;;;;;2344276;57;21049;-78
2022/08/10 04:56:43;;;;;;;3.53;2.33;;;;;;;;;;2343963;57;21049;-78
2022/08/10 04:59:11;;;;;;;2.58;2.37;;;;;;;;;;2345731;55;21120;-78
2022/08/10 05:01:39;;;;;;;3.22;2.33;;;;;;;;;;2344211;57;21048;-78
2022/08/10 05:04:06;;;;;;;3.35;2.60;;;;;;;;;;2344633;57;21600;-77
2022/08/10 05:06:33;;;;;;;5.18;2.62;;;;;;;;;;2345061;57;21109;-78
2022/08/10 05:09:00;;;;;;;2.97;2.37;;;;;;;;;;2345395;57;21041;-76
2022/08/10 05:11:27;;;;;;;2.75;2.33;;;;;;;;;;2344855;57;21038;-78
2022/08/10 05:13:54;;;;;;;4.53;2.25;;;;;;;;;;2345255;57;21057;-77
2022/08/10 05:16:21;;;;;;;4.78;2.72;;;;;;;;;;2353071;53;21101;-80
2022/08/10 05:18:48;;;;;;;4.60;2.55;;;;;;;;;;2344222;57;21065;-76
2022/08/10 05:21:15;;;;;;;4.03;2.97;;;;;;;;;;2344892;57;21580;-78
2022/08/10 05:23:42;;;;;;;4.22;3.03;;;;;;;;;;2345279;57;21062;-78
2022/08/10 05:26:09;;;;;;;3.53;2.67;;;;;;;;;;2398934;53;21573;-78
2022/08/10 05:28:37;;;;;;;3.97;2.80;;;;;;;;;;2345724;57;21034;-78
2022/08/10 05:31:04;;;;;;;4.12;2.67;;;;;;;;;;2386292;53;21102;-78
2022/08/10 05:33:31;;;;;;;4.30;3.08;;;;;;;;;;2362733;53;21054;-78
2022/08/10 05:35:59;;;;;;;5.95;3.67;;;;;;;;;;2344554;57;21057;-77
2022/08/10 05:38:26;;;;;;;5.15;3.90;;;;;;;;;;2357778;53;21145;-77
2022/08/10 05:40:54;;;;;;;5.95;3.03;;;;;;;;;;2355705;53;21049;-79
2022/08/10 05:43:22;;;;;;;5.70;2.97;;;;;;;;;;2345283;57;21607;-77
2022/08/10 05:45:50;;;;;;;4.12;2.37;;;;;;;;;;2497690;53;21053;-77
2022/08/10 05:48:18;;;;;;;3.50;3.00;;;;;;;;;;2606592;53;21168;-77
2022/08/10 05:50:45;;;;;;;6.78;3.28;;;;;;;;;;2606581;53;21048;-76
2022/08/10 05:53:12;;;;;;;4.90;3.70;;;;;;;;;;2603874;53;21046;-77
2022/08/10 05:55:39;;;;;;;4.47;3.50;;;;;;;;;;2604290;53;21124;-76
2022/08/10 05:58:06;;;;;;;5.97;4.15;;;;;;;;;;2355625;57;21049;-77
2022/08/10 06:00:34;;;;;;;5.15;3.30;;;;;;;;;;2355681;57;21121;-76
2022/08/10 06:03:03;;;;;;;4.45;3.85;;;;;;;;;;2604009;53;21037;-77
2022/08/10 06:05:32;;;;;;;5.93;3.78;;;;;;;;;;2354436;57;21092;-77
2022/08/10 06:08:01;;;;;;;5.45;3.20;;;;;;;;;;2355283;57;21038;-76
2022/08/10 06:10:30;;;;;;;7.18;4.15;;;;;;;;;;2355649;57;21623;-76
2022/08/10 06:15:46;;;;;;;5.40;4.25;;;;;;;;;;2354908;57;20994;-77
2022/08/10 06:18:14;;;;;;;5.45;3.67;;;;;;;;;;2355651;57;21053;-76
2022/08/10 06:20:41;;;;;;;4.80;4.00;;;;;;;;;;2355864;57;21128;-75
2022/08/10 06:23:09;;;;;;;4.65;3.33;;;;;;;;;;2355183;57;21030;-76
2022/08/10 06:25:36;;;;;;;3.80;2.90;;;;;;;;;;2354839;57;21064;-77
2022/08/10 06:28:06;;;;;;;3.95;2.67;;;;;;;;;;2355956;57;21120;-77
2022/08/10 06:30:34;;;;;;;4.28;3.35;;;;;;;;;;2355776;57;21100;-76
2022/08/10 06:33:04;;;;;;;6.75;3.47;;;;;;;;;;2355550;57;21528;-77
2022/08/10 06:35:32;;;;;;;4.72;3.67;;;;;;;;;;2604335;53;21029;-76
2022/08/10 06:38:02;;;;;;;6.50;4.22;;;;;;;;;;2354526;57;21630;-77
2022/08/10 06:40:32;;;;;;;7.97;4.87;;;;;;;;;;2355405;57;21112;-77
2022/08/10 06:43:00;;;;;;;5.87;4.10;;;;;;;;;;2355500;57;21136;-76
2022/08/10 06:45:30;;;;;;;6.30;3.90;;;;;;;;;;2355256;57;21061;-76
2022/08/10 06:48:00;;;;;;;8.30;3.87;;;;;;;;;;2355447;57;21117;-76
2022/08/10 06:50:31;;;;;;;5.47;3.80;;;;;;;;;;2354798;57;21025;-76
2022/08/10 06:52:58;;;;;;;5.30;3.45;;;;;;;;;;2355717;57;21053;-76
2022/08/10 06:55:26;;;;;;;3.90;3.20;;;;;;;;;;2353348;57;21033;-79
2022/08/10 06:57:55;;;;;;;5.22;3.37;;;;;;;;;;2352831;57;21057;-76
2022/08/10 07:00:22;;;;;;;5.43;2.70;;;;;;;;;;2353929;57;21061;-78
2022/08/10 07:02:51;;;;;;;4.57;2.90;;;;;;;;;;2354272;57;21073;-77
2022/08/10 07:05:20;;;;;;;3.10;2.67;;;;;;;;;;2352943;57;21132;-79
2022/08/10 07:07:49;;;;;;;7.87;3.08;;;;;;;;;;2353562;57;21091;-76
2022/08/10 07:10:18;;;;;;;4.85;3.00;;;;;;;;;;2353964;57;21125;-78
2022/08/10 07:12:46;;;;;;;3.92;3.00;;;;;;;;;;2354778;57;21111;-76
2022/08/10 07:15:16;;;;;;;6.40;3.17;;;;;;;;;;2353617;57;21121;-79
2022/08/10 07:17:43;;;;;;;4.25;2.95;;;;;;;;;;2354137;57;21161;-78
2022/08/10 07:20:16;;;;;;;7.50;2.78;;;;;;;;;;2354338;57;21044;-76
2022/08/10 07:22:43;;;;;;;5.32;2.62;;;;;;;;;;2354162;57;21069;-77
2022/08/10 07:25:11;;;;;;;4.10;2.45;;;;;;;;;;2603531;53;21061;-77
2022/08/10 07:27:39;;;;;;;4.10;2.95;;;;;;;;;;2351823;57;21201;-76
2022/08/10 07:30:08;;;;;;;4.45;2.60;;;;;;;;;;2602528;53;21584;-79
2022/08/10 07:32:35;;;;;;;6.43;3.05;;;;;;;;;;2353248;57;21044;-79
2022/08/10 07:35:03;;;;;;;3.85;2.60;;;;;;;;;;2603707;53;21547;-77
2022/08/10 07:37:31;;;;;;;4.40;2.62;;;;;;;;;;2353423;57;21036;-77
2022/08/10 07:39:59;;;;;;;4.30;3.05;;;;;;;;;;2354353;57;21045;-76
2022/08/10 07:42:28;;;;;;;3.47;2.60;;;;;;;;;;2603176;53;21037;-77
2022/08/10 07:44:55;;;;;;;4.62;2.90;;;;;;;;;;2353112;57;21485;-76
2022/08/10 07:47:24;;;;;;;5.07;2.60;;;;;;;;;;2353364;57;21088;-76
2022/08/10 07:49:52;;;;;;;4.87;2.42;;;;;;;;;;2355543;57;21049;-79
2022/08/10 07:52:19;;;;;;;5.65;2.28;;;;;;;;;;2604815;53;21045;-78
2022/08/10 07:54:49;;;;;;;5.53;2.45;;;;;;;;;;2355787;57;21140;-76
2022/08/10 07:57:18;;;;;;;6.25;2.50;;;;;;;;;;2355263;57;21097;-76
2022/08/10 07:59:48;;;;;;;3.97;2.33;;;;;;;;;;2355347;57;21108;-77
2022/08/10 08:02:19;;;;;;;3.80;2.33;;;;;;;;;;2354682;57;21109;-80
2022/08/10 08:04:47;;;;;;;5.15;2.40;;;;;;;;;;2355194;57;22107;-77
2022/08/10 08:07:14;;;;;;;2.35;1.90;;;;;;;;;;2604018;53;21057;-77
2022/08/10 08:09:42;;;;;;;4.07;2.05;;;;;;;;;;2355330;57;21124;-77
2022/08/10 08:12:10;;;;;;;3.87;1.92;;;;;;;;;;2355176;57;21049;-78
2022/08/10 08:14:38;;;;;;;3.03;1.95;;;;;;;;;;2604333;53;21169;-76
2022/08/10 08:17:06;;;;;;;5.53;2.40;;;;;;;;;;2354703;57;21120;-77
2022/08/10 08:19:34;;;;;;;5.10;2.30;;;;;;;;;;2603824;53;21600;-77
2022/08/10 08:22:02;;;;;;;6.62;1.90;;;;;;;;;;2355690;57;21120;-78
2022/08/10 08:24:31;;;;;;;2.87;1.80;;;;;;;;;;2355596;57;21042;-76
2022/08/10 08:26:59;;;;;;;1.77;1.50;;;;;;;;;;2354884;57;21545;-76
2022/08/10 08:29:26;;;;;;;3.20;1.55;;;;;;;;;;2604508;53;21884;-77
2022/08/10 08:31:54;;;;;;;3.15;1.40;;;;;;;;;;2355494;57;21054;-77
2022/08/10 08:34:22;;;;;;;1.62;1.40;;;;;;;;;;2355591;57;21587;-77
2022/08/10 08:36:50;;;;;;;2.40;1.45;;;;;;;;;;2355250;57;21042;-76
2022/08/10 08:39:17;;;;;;;3.62;2.05;;;;;;;;;;2355721;57;21037;-76
2022/08/10 08:42:10;;;;;;;1.67;1.58;;;;;;;;;;2355338;57;21093;-77
2022/08/10 08:44:44;;;;;;;7.18;1.90;;;;;;;;;;2351978;57;21045;-77
2022/08/10 08:47:22;;;;;;;2.22;1.60;;;;;;;;;;2355245;57;21056;-77
2022/08/10 08:49:53;;;;;;;2.62;1.30;;;;;;;;;;2353933;57;21529;-78
2022/08/10 08:52:34;;;;;;;3.08;2.03;;;;;;;;;;2355744;57;21535;-76
2022/08/10 08:55:10;;;;;;;4.18;1.60;;;;;;;;;;2355712;57;21057;-77
2022/08/10 08:57:43;;;;;;;2.97;1.55;;;;;;;;;;2604608;53;21045;-76
2022/08/10 09:00:12;;;;;;;1.83;1.17;;;;;;;;;;2355435;57;21141;-77
2022/08/10 09:02:57;;;;;;;2.40;1.37;;;;;;;;;;2355588;57;21045;-77
2022/08/10 09:05:31;;;;;;;1.62;1.10;;;;;;;;;;2354888;57;21049;-77
2022/08/10 09:08:02;;;;;;;2.95;1.30;;;;;;;;;;2355646;57;21050;-78
2022/08/10 09:10:37;;;;;;;3.37;1.48;;;;;;;;;;2355516;57;21056;-77
2022/08/10 09:13:08;;;;;;;3.28;1.42;;;;;;;;;;2604893;53;21041;-77
2022/08/10 09:15:38;;;;;;;1.25;0.90;;;;;;;;;;2355280;57;21128;-77
2022/08/10 09:18:11;;;;;;;1.35;0.90;;;;;;;;;;2355955;57;21057;-76
2022/08/10 09:20:40;;;;;;;2.10;1.00;;;;;;;;;;2355044;57;21069;-77
2022/08/10 09:23:11;;;;;;;4.28;1.60;;;;;;;;;;2355320;57;21675;-76
2022/08/10 09:25:43;;;;;;;2.45;1.50;;;;;;;;;;2604569;53;21077;-76
2022/08/10 09:28:16;;;;;;;3.62;1.42;;;;;;;;;;2355931;57;21100;-76
2022/08/10 09:30:46;;;;;;;1.20;1.10;;;;;;;;;;2605256;53;21041;-76
2022/08/10 09:33:14;;;;;;;2.15;1.30;;;;;;;;;;2355118;57;21061;-76
2022/08/10 09:35:50;;;;;;;1.45;1.17;;;;;;;;;;2353969;57;21049;-78
2022/08/10 09:38:21;;;;;;;2.22;1.10;;;;;;;;;;2601727;53;21070;-76
2022/08/10 09:40:52;;;;;;;1.75;1.20;;;;;;;;;;2354303;57;21538;-79
2022/08/10 09:43:22;;;;;;;1.45;1.10;;;;;;;;;;2354322;57;21061;-79
2022/08/10 09:45:53;;;;;;;1.58;1.10;;;;;;;;;;2353627;57;21125;-77
2022/08/10 09:48:25;;;;;;;2.33;0.95;;;;;;;;;;2354493;57;21658;-77
2022/08/10 09:50:58;;;;;;;3.12;1.20;;;;;;;;;;2354373;57;21663;-77
2022/08/10 09:53:33;;;;;;;1.12;1.02;;;;;;;;;;2351852;57;21132;-79
2022/08/10 09:56:08;;;;;;;2.53;1.37;;;;;;;;;;2353683;57;21606;-77
2022/08/10 09:58:40;;;;;;;1.67;0.95;;;;;;;;;;2353697;57;21113;-77
2022/08/10 10:01:11;;;;;;;1.40;1.10;;;;;;;;;;2353843;57;21105;-79
2022/08/10 10:03:42;;;;;;;1.25;1.15;;;;;;;;;;2353850;57;21105;-77
2022/08/10 10:06:12;;;;;;;2.72;1.40;;;;;;;;;;2354298;57;21124;-77
2022/08/10 10:08:42;;;;;;;1.42;1.00;;;;;;;;;;2354202;57;21041;-77
2022/08/10 10:13:56;;;;;;;1.98;1.17;;;;;;;;;;2603842;53;22339;-77
2022/08/10 10:16:27;;;;;;;1.85;1.10;;;;;;;;;;2344656;57;21049;-77
2022/08/10 10:19:00;;;;;;;5.03;1.30;;;;;;;;;;2346325;57;21682;-79
2022/08/10 10:21:34;;;;;;;1.08;0.90;;;;;;;;;;2353666;56;21031;-76
2022/08/10 10:24:05;;;;;;;1.80;0.90;;;;;;;;;;2374466;56;21042;-77
2022/08/10 10:26:41;;;;;;;1.90;1.10;;;;;;;;;;2625063;52;21039;-77
2022/08/10 10:29:14;;;;;;;1.77;1.08;;;;;;;;;;2627284;52;21098;-77
2022/08/10 10:31:45;;;;;;;2.25;1.17;;;;;;;;;;2373692;56;21035;-77
2022/08/10 10:34:15;;;;;;;2.35;1.20;;;;;;;;;;2373401;56;21059;-77
2022/08/10 10:36:44;;;;;;;1.77;1.05;;;;;;;;;;2625809;52;21549;-78
2022/08/10 10:39:13;;;;;;;1.10;1.00;;;;;;;;;;2373370;56;21051;-77
2022/08/10 10:41:47;;;;;;;1.35;1.10;;;;;;;;;;2374004;56;21109;-79
2022/08/10 10:44:22;;;;;;;2.85;1.10;;;;;;;;;;2372706;56;21031;-77
2022/08/10 10:46:54;;;;;;;2.62;1.48;;;;;;;;;;2372222;56;21105;-77
2022/08/10 10:49:28;;;;;;;1.27;0.90;;;;;;;;;;2373145;56;21039;-79
2022/08/10 10:52:00;;;;;;;2.17;1.20;;;;;;;;;;2374262;56;21122;-79
2022/08/10 10:54:35;;;;;;;1.73;1.12;;;;;;;;;;2371906;56;21051;-78
2022/08/10 10:57:06;;;;;;;1.73;1.30;;;;;;;;;;2372794;56;21027;-77
2022/08/10 10:59:37;;;;;;;1.58;1.08;;;;;;;;;;2372581;56;21546;-77
2022/08/10 11:02:09;;;;;;;2.47;1.02;;;;;;;;;;2374589;56;21182;-77
2022/08/10 11:04:42;;;;;;;1.35;1.25;;;;;;;;;;2628207;52;21047;-77
2022/08/10 11:07:16;;;;;;;1.83;1.00;;;;;;;;;;2373593;56;21107;-77
2022/08/10 11:09:46;;;;;;;1.48;1.10;;;;;;;;;;2372026;56;21034;-77
2022/08/10 11:14:55;;;;;;;1.62;1.02;;;;;;;;;;2326389;57;20098;-77
2022/08/10 11:17:26;;;;;;;1.70;1.20;;;;;;;;;;2345574;57;21599;-77
2022/08/10 11:19:55;;;;;;;1.80;1.17;;;;;;;;;;2345870;57;21113;-77
2022/08/10 11:22:28;;;;;;;1.20;1.00;;;;;;;;;;2346237;57;21055;-78
2022/08/10 11:24:58;;;;;;;2.15;1.20;;;;;;;;;;2593554;53;21130;-77
2022/08/10 11:27:32;;;;;;;2.55;1.25;;;;;;;;;;2345232;57;21067;-78
2022/08/10 11:29:58;;;;;;;;;;;;;;;;;;2349363;57;21040;-79
2022/08/10 11:32:32;;;;;;;1.27;0.90;;;;;;;;;;2345462;57;20058;-78
2022/08/10 11:37:38;;;;;;;1.65;1.00;;;;;;;;;;2503272;55;22159;-78
2022/08/10 11:40:11;;;;;;;1.42;1.08;;;;;;;;;;2525372;54;21047;-78
2022/08/10 11:42:41;;;;;;;2.20;1.10;;;;;;;;;;2290503;58;21138;-78
2022/08/10 11:45:12;;;;;;;1.02;0.85;;;;;;;;;;2289538;55;21434;-77
2022/08/10 11:47:44;;;;;;;1.35;1.00;;;;;;;;;;2265264;59;21126;-77
2022/08/10 11:50:16;;;;;;;1.37;1.10;;;;;;;;;;2266389;59;21090;-77
2022/08/10 11:52:48;;;;;;;3.42;1.15;;;;;;;;;;2340802;54;21140;-77
2022/08/10 11:55:18;;;;;;;1.40;1.10;;;;;;;;;;2265083;59;21030;-77
2022/08/10 11:57:46;;;;;;;1.92;1.00;;;;;;;;;;2265987;59;21655;-77
2022/08/10 12:00:14;;;;;;;2.28;1.10;;;;;;;;;;2314349;55;21037;-76
2022/08/10 12:02:41;;;;;;;3.92;0.95;;;;;;;;;;2265684;59;21340;-77
2022/08/10 12:05:10;;;;;;;2.70;0.90;;;;;;;;;;2265885;59;21058;-77
2022/08/10 12:07:41;;;;;;;1.45;0.95;;;;;;;;;;2263300;59;21667;-77
2022/08/10 12:10:09;;;;;;;1.70;1.00;;;;;;;;;;2267777;55;21054;-76
2022/08/10 12:12:44;;;;;;;3.95;1.08;;;;;;;;;;2265643;59;21062;-77
2022/08/10 12:15:15;;;;;;;1.52;1.10;;;;;;;;;;2266170;59;21189;-76
2022/08/10 12:17:46;;;;;;;7.62;1.15;;;;;;;;;;2265902;59;21102;-77
2022/08/10 12:20:15;;;;;;;2.20;1.00;;;;;;;;;;2266259;59;21057;-77
2022/08/10 12:22:46;;;;;;;2.00;1.00;;;;;;;;;;2372465;55;21478;-77
2022/08/10 12:25:16;;;;;;;2.78;1.52;;;;;;;;;;2265784;59;21536;-76
2022/08/10 12:27:46;;;;;;;1.42;1.10;;;;;;;;;;2265883;59;21695;-77
2022/08/10 12:30:14;;;;;;;1.10;1.00;;;;;;;;;;2266526;59;21038;-78
2022/08/10 12:32:43;;;;;;;2.95;1.12;;;;;;;;;;2269675;55;21062;-78
2022/08/10 12:35:17;;;;;;;3.15;1.10;;;;;;;;;;2265959;59;21665;-78
2022/08/10 12:37:48;;;;;;;3.95;1.37;;;;;;;;;;2274996;55;21153;-79
2022/08/10 12:40:18;;;;;;;3.28;1.30;;;;;;;;;;2266599;59;21129;-78
2022/08/10 12:42:48;;;;;;;3.50;1.00;;;;;;;;;;2265286;59;21105;-78
2022/08/10 12:45:18;;;;;;;1.30;0.90;;;;;;;;;;2265480;59;21117;-78
2022/08/10 12:47:50;;;;;;;1.25;1.10;;;;;;;;;;2288994;55;21042;-77
2022/08/10 12:50:19;;;;;;;1.23;0.93;;;;;;;;;;2265503;59;21045;-77
2022/08/10 12:52:51;;;;;;;1.17;0.85;;;;;;;;;;2265429;59;21593;-78
2022/08/10 12:55:19;;;;;;;2.92;1.35;;;;;;;;;;2263954;59;21078;-77
2022/08/10 12:57:50;;;;;;;2.78;1.23;;;;;;;;;;2265202;59;21552;-77
2022/08/10 13:00:17;;;;;;;3.47;1.37;;;;;;;;;;2288882;55;21090;-77
2022/08/10 13:02:45;;;;;;;2.28;1.12;;;;;;;;;;2265342;59;21046;-77
2022/08/10 13:05:14;;;;;;;1.73;1.10;;;;;;;;;;2264677;59;21113;-77
2022/08/10 13:07:43;;;;;;;2.53;1.10;;;;;;;;;;2264392;59;21062;-77
2022/08/10 13:10:12;;;;;;;3.03;1.10;;;;;;;;;;2263929;59;21073;-77
2022/08/10 13:12:40;;;;;;;1.33;0.98;;;;;;;;;;2264708;59;22364;-77
2022/08/10 13:15:13;;;;;;;3.75;1.10;;;;;;;;;;2264360;59;21050;-78
2022/08/10 13:17:40;;;;;;;2.60;1.15;;;;;;;;;;2264622;59;21069;-78
2022/08/10 13:20:13;;;;;;;2.62;1.10;;;;;;;;;;2265652;59;21046;-78
2022/08/10 13:22:41;;;;;;;2.10;1.12;;;;;;;;;;2265445;59;21066;-78
2022/08/10 13:25:10;;;;;;;3.35;1.30;;;;;;;;;;2268370;55;21088;-77
2022/08/10 13:27:39;;;;;;;1.12;0.98;;;;;;;;;;2264588;59;21042;-78
2022/08/10 13:30:07;;;;;;;1.67;0.95;;;;;;;;;;2264393;59;21165;-78
2022/08/10 13:32:36;;;;;;;1.85;1.20;;;;;;;;;;2264057;59;21105;-78
2022/08/10 13:35:07;;;;;;;2.90;1.20;;;;;;;;;;2427579;55;21046;-77
2022/08/10 13:37:38;;;;;;;2.55;1.37;;;;;;;;;;2265624;59;21110;-78
2022/08/10 13:40:10;;;;;;;1.77;1.20;;;;;;;;;;2264454;59;21180;-77
2022/08/10 13:42:37;;;;;;;2.37;1.33;;;;;;;;;;2265361;59;21065;-77
2022/08/10 13:45:08;;;;;;;2.37;0.90;;;;;;;;;;2264844;59;21058;-78
2022/08/10 13:47:35;;;;;;;3.67;1.45;;;;;;;;;;2276667;55;21058;-77
2022/08/10 13:50:04;;;;;;;1.10;0.85;;;;;;;;;;2263841;59;21058;-78
2022/08/10 13:52:31;;;;;;;2.22;1.05;;;;;;;;;;2290672;55;21046;-78
2022/08/10 13:54:59;;;;;;;1.62;1.30;;;;;;;;;;2265288;59;21102;-78
2022/08/10 13:57:27;;;;;;;2.75;1.48;;;;;;;;;;2264949;59;21548;-77
2022/08/10 13:59:55;;;;;;;5.25;1.20;;;;;;;;;;2265108;59;21034;-77
2022/08/10 14:02:25;;;;;;;4.62;1.25;;;;;;;;;;2265023;59;21101;-77
2022/08/10 14:04:54;;;;;;;3.40;1.10;;;;;;;;;;2264651;59;21042;-78
2022/08/10 14:07:22;;;;;;;1.20;1.10;;;;;;;;;;2264368;59;21719;-78
2022/08/10 14:09:50;;;;;;;2.80;1.20;;;;;;;;;;2263847;59;21062;-78
2022/08/10 14:12:17;;;;;;;3.45;1.50;;;;;;;;;;2265729;59;21050;-78
2022/08/10 14:14:48;;;;;;;3.67;1.60;;;;;;;;;;2265798;59;21142;-78
2022/08/10 14:17:17;;;;;;;3.55;1.50;;;;;;;;;;2265326;59;21069;-78
2022/08/10 14:19:48;;;;;;;4.30;1.37;;;;;;;;;;2265252;59;21062;-78
2022/08/10 14:22:18;;;;;;;1.50;0.90;;;;;;;;;;2265199;59;21054;-79
2022/08/10 14:24:45;;;;;;;1.60;1.00;;;;;;;;;;2265743;59;21054;-79
2022/08/10 14:27:14;;;;;;;1.42;0.80;;;;;;;;;;2265561;59;21061;-77
2022/08/10 14:29:43;;;;;;;3.03;1.17;;;;;;;;;;2264569;59;21149;-77
2022/08/10 14:32:11;;;;;;;2.45;1.10;;;;;;;;;;2301736;55;21038;-77
2022/08/10 14:34:39;;;;;;;3.28;1.20;;;;;;;;;;2265143;59;21059;-78
2022/08/10 14:37:08;;;;;;;1.87;0.93;;;;;;;;;;2264513;59;21583;-78
2022/08/10 14:39:42;;;;;;;1.67;1.10;;;;;;;;;;2265545;59;21042;-78
2022/08/10 14:42:13;;;;;;;1.27;1.05;;;;;;;;;;2278627;55;21118;-77
2022/08/10 14:44:44;;;;;;;1.23;0.95;;;;;;;;;;2266335;59;21046;-78
2022/08/10 14:47:12;;;;;;;1.52;0.80;;;;;;;;;;2264743;59;21065;-78
2022/08/10 14:49:40;;;;;;;3.45;1.20;;;;;;;;;;2266106;59;21037;-78
2022/08/10 14:52:08;;;;;;;1.12;1.00;;;;;;;;;;2264964;59;21604;-78
2022/08/10 14:54:36;;;;;;;1.87;1.10;;;;;;;;;;2265134;59;21553;-80
2022/08/10 14:57:04;;;;;;;0.95;0.85;;;;;;;;;;2265382;59;21065;-82
2022/08/10 14:59:32;;;;;;;2.05;1.25;;;;;;;;;;2265952;59;21066;-83
2022/08/10 15:02:02;;;;;;;3.10;1.20;;;;;;;;;;2266064;59;21050;-80
2022/08/10 15:04:30;;;;;;;2.28;1.20;;;;;;;;;;2266541;59;21057;-82
2022/08/10 15:06:59;;;;;;;1.33;0.93;;;;;;;;;;2280474;55;21048;-83
2022/08/10 15:09:29;;;;;;;2.33;1.10;;;;;;;;;;2333882;55;21062;-81